Weather at Kefar Gallim Highway Strip

Public forecast

Using degrees Celsius for public forecast. Weather courtesy of forecast.io.

Closest aviation weather report (METAR) to Kefar Gallim Highway Strip

Report is more than 2 hours old.

Closest report is Haifa International Airport, 5.4 nm (9.9 km) ENE. Retrieved 2021/12/04 17:50 UTC (2 hours ago):

LLHA 041750Z 14009KT CAVOK 21/05 Q1013

Closest aviation forecast (TAF) to Kefar Gallim Highway Strip

Closest forecast is Haifa International Airport, 5.4 nm (9.9 km) ENE. Retrieved 2021/12/04 18:00 UTC (2 hours ago):

TAF LLHA 041703Z 0418/0518 13010KT CAVOK PROB30 TEMPO 0510/0512 21015G25KT 5000 DU FM051200 16008KT 9999 SCT030 PROB40 TEMPO 0512/0518 21015G25KT 5000 TSRA FEW025CB BKN030 TX22/0510Z TN15/0504Z